sensor_id;sensor_type;location;lat;lon;timestamp;temperature;humidity
28823;DHT22;15961;54.678;9.110;2022-07-06T00:02:07;11.70;99.90
28823;DHT22;15961;54.678;9.110;2022-07-06T00:04:33;11.80;99.90
28823;DHT22;15961;54.678;9.110;2022-07-06T00:06:58;11.80;99.90
28823;DHT22;15961;54.678;9.110;2022-07-06T00:09:24;11.80;99.90
28823;DHT22;15961;54.678;9.110;2022-07-06T00:11:50;11.90;99.90
28823;DHT22;15961;54.678;9.110;2022-07-06T00:14:15;11.90;99.90
28823;DHT22;15961;54.678;9.110;2022-07-06T00:16:41;12.00;99.90
28823;DHT22;15961;54.678;9.110;2022-07-06T00:19:06;12.00;99.90
28823;DHT22;15961;54.678;9.110;2022-07-06T00:21:32;12.00;99.90
28823;DHT22;15961;54.678;9.110;2022-07-06T00:23:57;11.90;99.90
28823;DHT22;15961;54.678;9.110;2022-07-06T00:26:23;11.90;99.90
28823;DHT22;15961;54.678;9.110;2022-07-06T00:28:49;12.00;99.90
28823;DHT22;15961;54.678;9.110;2022-07-06T00:31:14;12.00;99.90
28823;DHT22;15961;54.678;9.110;2022-07-06T00:33:40;11.90;99.90
28823;DHT22;15961;54.678;9.110;2022-07-06T00:36:05;12.00;99.90
28823;DHT22;15961;54.678;9.110;2022-07-06T00:38:31;12.00;99.90
28823;DHT22;15961;54.678;9.110;2022-07-06T00:40:57;12.10;99.90
28823;DHT22;15961;54.678;9.110;2022-07-06T00:43:23;12.10;99.90
28823;DHT22;15961;54.678;9.110;2022-07-06T00:45:48;12.10;99.90
28823;DHT22;15961;54.678;9.110;2022-07-06T00:48:14;12.10;99.90
28823;DHT22;15961;54.678;9.110;2022-07-06T00:50:39;12.20;99.90
28823;DHT22;15961;54.678;9.110;2022-07-06T00:53:06;12.20;99.90
28823;DHT22;15961;54.678;9.110;2022-07-06T00:55:36;12.20;99.90
28823;DHT22;15961;54.678;9.110;2022-07-06T00:58:03;12.20;99.90
28823;DHT22;15961;54.678;9.110;2022-07-06T01:00:29;12.20;99.90
28823;DHT22;15961;54.678;9.110;2022-07-06T01:02:55;12.20;99.90
28823;DHT22;15961;54.678;9.110;2022-07-06T01:05:21;12.20;99.90
28823;DHT22;15961;54.678;9.110;2022-07-06T01:07:48;12.20;99.90
28823;DHT22;15961;54.678;9.110;2022-07-06T01:10:16;12.20;99.90
28823;DHT22;15961;54.678;9.110;2022-07-06T01:12:43;12.20;99.90
28823;DHT22;15961;54.678;9.110;2022-07-06T01:15:12;12.10;99.90
28823;DHT22;15961;54.678;9.110;2022-07-06T01:17:42;12.20;99.90
28823;DHT22;15961;54.678;9.110;2022-07-06T01:20:21;12.20;99.90
28823;DHT22;15961;54.678;9.110;2022-07-06T01:22:49;12.10;99.90
28823;DHT22;15961;54.678;9.110;2022-07-06T01:25:15;12.10;99.90
28823;DHT22;15961;54.678;9.110;2022-07-06T01:27:41;12.10;99.90
28823;DHT22;15961;54.678;9.110;2022-07-06T01:30:18;12.20;99.90
28823;DHT22;15961;54.678;9.110;2022-07-06T01:32:44;12.10;99.90
28823;DHT22;15961;54.678;9.110;2022-07-06T01:35:12;12.10;99.90
28823;DHT22;15961;54.678;9.110;2022-07-06T01:37:37;12.10;99.90
28823;DHT22;15961;54.678;9.110;2022-07-06T01:40:06;12.10;99.90
28823;DHT22;15961;54.678;9.110;2022-07-06T01:42:32;12.10;99.90
28823;DHT22;15961;54.678;9.110;2022-07-06T01:44:58;12.10;99.90
28823;DHT22;15961;54.678;9.110;2022-07-06T01:47:24;12.10;99.90
28823;DHT22;15961;54.678;9.110;2022-07-06T01:49:50;12.10;99.90
28823;DHT22;15961;54.678;9.110;2022-07-06T01:52:16;12.20;99.90
28823;DHT22;15961;54.678;9.110;2022-07-06T01:54:41;12.20;99.90
28823;DHT22;15961;54.678;9.110;2022-07-06T01:57:07;12.20;99.90
28823;DHT22;15961;54.678;9.110;2022-07-06T01:59:33;12.20;99.90
28823;DHT22;15961;54.678;9.110;2022-07-06T02:01:58;12.20;99.90
28823;DHT22;15961;54.678;9.110;2022-07-06T02:04:24;12.30;99.90
28823;DHT22;15961;54.678;9.110;2022-07-06T02:06:49;12.20;99.90
28823;DHT22;15961;54.678;9.110;2022-07-06T02:09:15;12.30;99.90
28823;DHT22;15961;54.678;9.110;2022-07-06T02:11:42;12.30;99.90
28823;DHT22;15961;54.678;9.110;2022-07-06T02:14:07;12.30;99.90
28823;DHT22;15961;54.678;9.110;2022-07-06T02:16:33;12.30;99.90
28823;DHT22;15961;54.678;9.110;2022-07-06T02:18:59;12.30;99.90
28823;DHT22;15961;54.678;9.110;2022-07-06T02:21:24;12.30;99.90
28823;DHT22;15961;54.678;9.110;2022-07-06T02:23:50;12.20;99.90
28823;DHT22;15961;54.678;9.110;2022-07-06T02:26:15;12.20;99.90
28823;DHT22;15961;54.678;9.110;2022-07-06T02:28:41;12.10;99.90
28823;DHT22;15961;54.678;9.110;2022-07-06T02:31:06;11.90;99.90
28823;DHT22;15961;54.678;9.110;2022-07-06T02:33:32;11.80;99.90
28823;DHT22;15961;54.678;9.110;2022-07-06T02:35:57;11.70;99.90
28823;DHT22;15961;54.678;9.110;2022-07-06T02:38:23;11.60;99.90
28823;DHT22;15961;54.678;9.110;2022-07-06T02:40:48;11.60;99.90
28823;DHT22;15961;54.678;9.110;2022-07-06T02:43:14;11.60;99.90
28823;DHT22;15961;54.678;9.110;2022-07-06T02:45:40;11.50;99.90
28823;DHT22;15961;54.678;9.110;2022-07-06T02:48:05;11.50;99.90
28823;DHT22;15961;54.678;9.110;2022-07-06T02:50:31;11.50;99.90
28823;DHT22;15961;54.678;9.110;2022-07-06T02:52:56;11.60;99.90
28823;DHT22;15961;54.678;9.110;2022-07-06T02:55:23;11.60;99.90
28823;DHT22;15961;54.678;9.110;2022-07-06T02:57:49;11.70;99.90
28823;DHT22;15961;54.678;9.110;2022-07-06T03:00:15;11.70;99.90
28823;DHT22;15961;54.678;9.110;2022-07-06T03:02:41;11.80;99.90
28823;DHT22;15961;54.678;9.110;2022-07-06T03:05:07;11.90;99.90
28823;DHT22;15961;54.678;9.110;2022-07-06T03:07:33;12.10;99.90
28823;DHT22;15961;54.678;9.110;2022-07-06T03:09:58;12.10;99.90
28823;DHT22;15961;54.678;9.110;2022-07-06T03:12:24;12.10;99.90
28823;DHT22;15961;54.678;9.110;2022-07-06T03:14:49;12.10;99.90
28823;DHT22;15961;54.678;9.110;2022-07-06T03:17:15;12.20;99.90
28823;DHT22;15961;54.678;9.110;2022-07-06T03:19:40;12.10;99.90
28823;DHT22;15961;54.678;9.110;2022-07-06T03:22:06;12.00;99.90
28823;DHT22;15961;54.678;9.110;2022-07-06T03:24:31;12.00;99.90
28823;DHT22;15961;54.678;9.110;2022-07-06T03:26:57;12.00;99.90
28823;DHT22;15961;54.678;9.110;2022-07-06T03:29:23;12.00;99.90
28823;DHT22;15961;54.678;9.110;2022-07-06T03:31:48;11.90;99.90
28823;DHT22;15961;54.678;9.110;2022-07-06T03:34:14;11.90;99.90
28823;DHT22;15961;54.678;9.110;2022-07-06T03:36:39;11.90;99.90
28823;DHT22;15961;54.678;9.110;2022-07-06T03:39:05;11.90;99.90
28823;DHT22;15961;54.678;9.110;2022-07-06T03:41:31;12.00;99.90
28823;DHT22;15961;54.678;9.110;2022-07-06T03:43:58;12.00;99.90
28823;DHT22;15961;54.678;9.110;2022-07-06T03:46:23;12.00;99.90
28823;DHT22;15961;54.678;9.110;2022-07-06T03:48:49;12.00;99.90
28823;DHT22;15961;54.678;9.110;2022-07-06T03:51:14;12.10;99.90
28823;DHT22;15961;54.678;9.110;2022-07-06T03:53:40;12.10;99.90
28823;DHT22;15961;54.678;9.110;2022-07-06T03:56:05;12.20;99.90
28823;DHT22;15961;54.678;9.110;2022-07-06T03:58:49;12.10;99.90
28823;DHT22;15961;54.678;9.110;2022-07-06T04:01:15;12.20;99.90
28823;DHT22;15961;54.678;9.110;2022-07-06T04:03:40;12.20;99.90
28823;DHT22;15961;54.678;9.110;2022-07-06T04:06:06;12.20;99.90
28823;DHT22;15961;54.678;9.110;2022-07-06T04:08:32;12.20;99.90
28823;DHT22;15961;54.678;9.110;2022-07-06T04:10:58;12.20;99.90
28823;DHT22;15961;54.678;9.110;2022-07-06T04:13:23;12.30;99.90
28823;DHT22;15961;54.678;9.110;2022-07-06T04:15:51;12.30;99.90
28823;DHT22;15961;54.678;9.110;2022-07-06T04:18:16;12.40;99.90
28823;DHT22;15961;54.678;9.110;2022-07-06T04:20:42;12.40;99.90
28823;DHT22;15961;54.678;9.110;2022-07-06T04:23:08;12.40;99.90
28823;DHT22;15961;54.678;9.110;2022-07-06T04:25:34;12.40;99.90
28823;DHT22;15961;54.678;9.110;2022-07-06T04:28:00;12.40;99.90
28823;DHT22;15961;54.678;9.110;2022-07-06T04:30:25;12.50;99.90
28823;DHT22;15961;54.678;9.110;2022-07-06T04:32:51;12.60;99.90
28823;DHT22;15961;54.678;9.110;2022-07-06T04:35:17;12.60;99.90
28823;DHT22;15961;54.678;9.110;2022-07-06T04:37:42;12.70;99.90
28823;DHT22;15961;54.678;9.110;2022-07-06T04:40:08;12.60;99.90
28823;DHT22;15961;54.678;9.110;2022-07-06T04:42:34;12.60;99.90
28823;DHT22;15961;54.678;9.110;2022-07-06T04:45:00;12.60;99.90
28823;DHT22;15961;54.678;9.110;2022-07-06T04:47:25;12.70;99.90
28823;DHT22;15961;54.678;9.110;2022-07-06T04:49:51;12.60;99.90
28823;DHT22;15961;54.678;9.110;2022-07-06T04:52:16;12.70;99.90
28823;DHT22;15961;54.678;9.110;2022-07-06T04:54:42;12.60;99.90
28823;DHT22;15961;54.678;9.110;2022-07-06T04:57:08;12.70;99.90
28823;DHT22;15961;54.678;9.110;2022-07-06T04:59:33;12.80;99.90
28823;DHT22;15961;54.678;9.110;2022-07-06T05:01:59;12.70;99.90
28823;DHT22;15961;54.678;9.110;2022-07-06T05:04:24;12.80;99.90
28823;DHT22;15961;54.678;9.110;2022-07-06T05:06:50;12.80;99.90
28823;DHT22;15961;54.678;9.110;2022-07-06T05:09:16;12.80;99.90
28823;DHT22;15961;54.678;9.110;2022-07-06T05:11:41;12.90;99.90
28823;DHT22;15961;54.678;9.110;2022-07-06T05:14:07;12.90;99.90
28823;DHT22;15961;54.678;9.110;2022-07-06T05:16:33;13.00;99.90
28823;DHT22;15961;54.678;9.110;2022-07-06T05:18:58;12.90;99.90
28823;DHT22;15961;54.678;9.110;2022-07-06T05:21:24;13.10;99.90
28823;DHT22;15961;54.678;9.110;2022-07-06T05:23:50;13.30;99.90
28823;DHT22;15961;54.678;9.110;2022-07-06T05:26:16;13.30;99.90
28823;DHT22;15961;54.678;9.110;2022-07-06T05:28:42;13.50;99.90
28823;DHT22;15961;54.678;9.110;2022-07-06T05:31:07;13.50;99.90
28823;DHT22;15961;54.678;9.110;2022-07-06T05:33:33;13.60;99.90
28823;DHT22;15961;54.678;9.110;2022-07-06T05:35:59;13.70;99.90
28823;DHT22;15961;54.678;9.110;2022-07-06T05:38:24;13.70;99.90
28823;DHT22;15961;54.678;9.110;2022-07-06T05:40:50;13.70;99.90
28823;DHT22;15961;54.678;9.110;2022-07-06T05:43:16;13.70;99.90
28823;DHT22;15961;54.678;9.110;2022-07-06T05:45:41;13.80;99.90
28823;DHT22;15961;54.678;9.110;2022-07-06T05:48:07;13.80;99.90
28823;DHT22;15961;54.678;9.110;2022-07-06T05:50:51;13.90;99.90
28823;DHT22;15961;54.678;9.110;2022-07-06T05:53:17;14.00;99.90
28823;DHT22;15961;54.678;9.110;2022-07-06T05:55:42;14.20;99.90
28823;DHT22;15961;54.678;9.110;2022-07-06T05:58:08;14.10;99.90
28823;DHT22;15961;54.678;9.110;2022-07-06T06:00:33;14.20;99.90
28823;DHT22;15961;54.678;9.110;2022-07-06T06:02:59;14.30;99.90
28823;DHT22;15961;54.678;9.110;2022-07-06T06:05:25;14.40;99.90
28823;DHT22;15961;54.678;9.110;2022-07-06T06:07:51;14.40;99.90
28823;DHT22;15961;54.678;9.110;2022-07-06T06:10:18;14.60;99.90
28823;DHT22;15961;54.678;9.110;2022-07-06T06:12:45;14.80;99.90
28823;DHT22;15961;54.678;9.110;2022-07-06T06:15:11;15.00;99.90
28823;DHT22;15961;54.678;9.110;2022-07-06T06:17:38;15.10;99.90
28823;DHT22;15961;54.678;9.110;2022-07-06T06:20:08;15.20;99.90
28823;DHT22;15961;54.678;9.110;2022-07-06T06:25:14;15.10;99.90
28823;DHT22;15961;54.678;9.110;2022-07-06T06:27:40;15.10;99.90
28823;DHT22;15961;54.678;9.110;2022-07-06T06:30:06;15.10;99.90
28823;DHT22;15961;54.678;9.110;2022-07-06T06:32:32;14.90;99.90
28823;DHT22;15961;54.678;9.110;2022-07-06T06:34:57;14.90;99.90
28823;DHT22;15961;54.678;9.110;2022-07-06T06:37:23;14.80;99.90
28823;DHT22;15961;54.678;9.110;2022-07-06T06:39:49;14.70;99.90
28823;DHT22;15961;54.678;9.110;2022-07-06T06:42:14;14.60;99.90
28823;DHT22;15961;54.678;9.110;2022-07-06T06:44:40;14.60;99.90
28823;DHT22;15961;54.678;9.110;2022-07-06T06:47:05;14.70;99.90
28823;DHT22;15961;54.678;9.110;2022-07-06T06:49:31;14.70;99.90
28823;DHT22;15961;54.678;9.110;2022-07-06T06:51:56;14.80;99.90
28823;DHT22;15961;54.678;9.110;2022-07-06T06:54:22;15.10;99.90
28823;DHT22;15961;54.678;9.110;2022-07-06T06:56:47;15.30;99.90
28823;DHT22;15961;54.678;9.110;2022-07-06T06:59:13;15.20;99.90
28823;DHT22;15961;54.678;9.110;2022-07-06T07:01:39;15.50;99.90
28823;DHT22;15961;54.678;9.110;2022-07-06T07:04:04;15.60;99.90
28823;DHT22;15961;54.678;9.110;2022-07-06T07:06:31;15.50;99.90
28823;DHT22;15961;54.678;9.110;2022-07-06T07:08:57;15.70;99.90
28823;DHT22;15961;54.678;9.110;2022-07-06T07:11:23;16.00;99.90
28823;DHT22;15961;54.678;9.110;2022-07-06T07:13:48;16.00;99.90
28823;DHT22;15961;54.678;9.110;2022-07-06T07:16:14;16.00;99.90
28823;DHT22;15961;54.678;9.110;2022-07-06T07:18:40;16.10;99.90
28823;DHT22;15961;54.678;9.110;2022-07-06T07:21:05;16.20;99.90
28823;DHT22;15961;54.678;9.110;2022-07-06T07:23:31;16.40;99.90
28823;DHT22;15961;54.678;9.110;2022-07-06T07:25:56;16.30;99.90
28823;DHT22;15961;54.678;9.110;2022-07-06T07:28:22;16.30;99.90
28823;DHT22;15961;54.678;9.110;2022-07-06T07:30:48;16.70;99.90
28823;DHT22;15961;54.678;9.110;2022-07-06T07:33:13;17.30;99.90
28823;DHT22;15961;54.678;9.110;2022-07-06T07:35:39;17.60;99.90
28823;DHT22;15961;54.678;9.110;2022-07-06T07:38:05;17.40;99.90
28823;DHT22;15961;54.678;9.110;2022-07-06T07:40:30;17.00;99.90
28823;DHT22;15961;54.678;9.110;2022-07-06T07:42:56;16.50;99.90
28823;DHT22;15961;54.678;9.110;2022-07-06T07:45:22;16.20;99.90
28823;DHT22;15961;54.678;9.110;2022-07-06T07:47:47;16.10;99.90
28823;DHT22;15961;54.678;9.110;2022-07-06T07:50:13;16.00;99.90
28823;DHT22;15961;54.678;9.110;2022-07-06T07:52:38;15.90;99.90
28823;DHT22;15961;54.678;9.110;2022-07-06T07:55:05;16.00;99.90
28823;DHT22;15961;54.678;9.110;2022-07-06T07:57:30;16.10;99.90
28823;DHT22;15961;54.678;9.110;2022-07-06T07:59:56;16.20;99.90
28823;DHT22;15961;54.678;9.110;2022-07-06T08:02:21;16.30;99.90
28823;DHT22;15961;54.678;9.110;2022-07-06T08:04:47;16.30;99.90
28823;DHT22;15961;54.678;9.110;2022-07-06T08:07:13;16.30;99.90
28823;DHT22;15961;54.678;9.110;2022-07-06T08:09:38;16.50;99.90
28823;DHT22;15961;54.678;9.110;2022-07-06T08:12:04;17.20;99.90
28823;DHT22;15961;54.678;9.110;2022-07-06T08:14:30;17.80;99.90
28823;DHT22;15961;54.678;9.110;2022-07-06T08:16:55;17.80;99.90
28823;DHT22;15961;54.678;9.110;2022-07-06T08:19:21;17.50;99.90
28823;DHT22;15961;54.678;9.110;2022-07-06T08:21:47;17.10;99.90
28823;DHT22;15961;54.678;9.110;2022-07-06T08:24:12;16.80;99.90
28823;DHT22;15961;54.678;9.110;2022-07-06T08:26:38;16.60;99.90
28823;DHT22;15961;54.678;9.110;2022-07-06T08:29:04;16.20;99.90
28823;DHT22;15961;54.678;9.110;2022-07-06T08:31:29;16.10;99.90
28823;DHT22;15961;54.678;9.110;2022-07-06T08:33:55;16.10;99.90
28823;DHT22;15961;54.678;9.110;2022-07-06T08:36:22;16.20;99.90
28823;DHT22;15961;54.678;9.110;2022-07-06T08:38:49;16.40;99.90
28823;DHT22;15961;54.678;9.110;2022-07-06T08:41:15;16.50;99.90
28823;DHT22;15961;54.678;9.110;2022-07-06T08:43:41;16.40;99.90
28823;DHT22;15961;54.678;9.110;2022-07-06T08:46:07;16.20;99.90
28823;DHT22;15961;54.678;9.110;2022-07-06T08:48:37;16.50;99.90
28823;DHT22;15961;54.678;9.110;2022-07-06T08:51:04;17.30;99.90
28823;DHT22;15961;54.678;9.110;2022-07-06T08:53:30;17.80;99.90
28823;DHT22;15961;54.678;9.110;2022-07-06T08:55:55;17.80;99.90
28823;DHT22;15961;54.678;9.110;2022-07-06T08:58:25;17.40;99.90
28823;DHT22;15961;54.678;9.110;2022-07-06T09:00:52;16.90;99.90
28823;DHT22;15961;54.678;9.110;2022-07-06T09:03:19;16.70;99.90
28823;DHT22;15961;54.678;9.110;2022-07-06T09:05:46;16.60;99.90
28823;DHT22;15961;54.678;9.110;2022-07-06T09:08:12;16.30;99.90
28823;DHT22;15961;54.678;9.110;2022-07-06T09:10:38;16.10;99.90
28823;DHT22;15961;54.678;9.110;2022-07-06T09:13:08;16.00;99.90
28823;DHT22;15961;54.678;9.110;2022-07-06T09:15:36;15.90;99.90
28823;DHT22;15961;54.678;9.110;2022-07-06T09:18:04;16.00;99.90
28823;DHT22;15961;54.678;9.110;2022-07-06T09:20:30;16.20;99.90
28823;DHT22;15961;54.678;9.110;2022-07-06T09:23:01;16.30;99.90
28823;DHT22;15961;54.678;9.110;2022-07-06T09:25:27;16.50;99.90
28823;DHT22;15961;54.678;9.110;2022-07-06T09:27:53;16.80;99.90
28823;DHT22;15961;54.678;9.110;2022-07-06T09:30:21;16.90;99.90
28823;DHT22;15961;54.678;9.110;2022-07-06T09:32:51;17.10;99.90
28823;DHT22;15961;54.678;9.110;2022-07-06T09:35:28;17.40;99.90
28823;DHT22;15961;54.678;9.110;2022-07-06T09:40:32;18.30;99.90
28823;DHT22;15961;54.678;9.110;2022-07-06T09:43:15;18.60;99.90
28823;DHT22;15961;54.678;9.110;2022-07-06T09:45:50;19.00;99.90
28823;DHT22;15961;54.678;9.110;2022-07-06T09:48:21;19.20;99.90
28823;DHT22;15961;54.678;9.110;2022-07-06T09:50:54;18.70;99.90
28823;DHT22;15961;54.678;9.110;2022-07-06T09:53:21;18.20;99.90
28823;DHT22;15961;54.678;9.110;2022-07-06T09:55:49;17.60;99.90
28823;DHT22;15961;54.678;9.110;2022-07-06T09:58:15;17.60;99.90
28823;DHT22;15961;54.678;9.110;2022-07-06T10:00:42;18.20;99.90
28823;DHT22;15961;54.678;9.110;2022-07-06T10:03:08;19.00;99.90
28823;DHT22;15961;54.678;9.110;2022-07-06T10:05:37;19.40;99.90
28823;DHT22;15961;54.678;9.110;2022-07-06T10:08:03;19.00;99.90
28823;DHT22;15961;54.678;9.110;2022-07-06T10:10:32;18.50;99.90
28823;DHT22;15961;54.678;9.110;2022-07-06T10:12:59;18.60;99.90
28823;DHT22;15961;54.678;9.110;2022-07-06T10:15:26;19.50;99.90
28823;DHT22;15961;54.678;9.110;2022-07-06T10:17:53;19.70;99.90
28823;DHT22;15961;54.678;9.110;2022-07-06T10:20:20;19.90;99.90
28823;DHT22;15961;54.678;9.110;2022-07-06T10:22:49;19.60;99.90
28823;DHT22;15961;54.678;9.110;2022-07-06T10:25:17;19.40;99.90
28823;DHT22;15961;54.678;9.110;2022-07-06T10:27:45;19.50;99.90
28823;DHT22;15961;54.678;9.110;2022-07-06T10:30:11;19.00;99.90
28823;DHT22;15961;54.678;9.110;2022-07-06T10:32:39;18.70;99.90
28823;DHT22;15961;54.678;9.110;2022-07-06T10:35:06;18.50;99.90
28823;DHT22;15961;54.678;9.110;2022-07-06T10:37:32;18.70;99.90
28823;DHT22;15961;54.678;9.110;2022-07-06T10:39:59;19.30;99.90
28823;DHT22;15961;54.678;9.110;2022-07-06T10:45:19;20.30;99.90
28823;DHT22;15961;54.678;9.110;2022-07-06T10:47:46;20.50;99.90
28823;DHT22;15961;54.678;9.110;2022-07-06T10:50:12;20.50;99.90
28823;DHT22;15961;54.678;9.110;2022-07-06T10:52:52;20.10;99.90
28823;DHT22;15961;54.678;9.110;2022-07-06T10:57:54;20.20;99.90
28823;DHT22;15961;54.678;9.110;2022-07-06T11:00:20;20.30;99.90
28823;DHT22;15961;54.678;9.110;2022-07-06T11:02:46;19.80;99.90
28823;DHT22;15961;54.678;9.110;2022-07-06T11:05:11;19.20;99.90
28823;DHT22;15961;54.678;9.110;2022-07-06T11:08:01;18.60;99.90
28823;DHT22;15961;54.678;9.110;2022-07-06T11:10:27;18.30;99.90
28823;DHT22;15961;54.678;9.110;2022-07-06T11:13:01;18.60;99.90
28823;DHT22;15961;54.678;9.110;2022-07-06T11:15:46;18.70;99.90
28823;DHT22;15961;54.678;9.110;2022-07-06T11:18:12;18.60;99.90
28823;DHT22;15961;54.678;9.110;2022-07-06T11:20:38;18.40;99.90
28823;DHT22;15961;54.678;9.110;2022-07-06T11:23:04;18.20;99.90
28823;DHT22;15961;54.678;9.110;2022-07-06T11:25:30;18.30;99.90
28823;DHT22;15961;54.678;9.110;2022-07-06T11:27:56;18.80;99.90
28823;DHT22;15961;54.678;9.110;2022-07-06T11:30:22;19.50;99.90
28823;DHT22;15961;54.678;9.110;2022-07-06T11:32:47;19.80;99.90
28823;DHT22;15961;54.678;9.110;2022-07-06T11:35:21;19.60;99.90
28823;DHT22;15961;54.678;9.110;2022-07-06T11:37:47;19.30;99.90
28823;DHT22;15961;54.678;9.110;2022-07-06T11:40:13;18.70;99.90
28823;DHT22;15961;54.678;9.110;2022-07-06T11:42:53;18.40;99.90
28823;DHT22;15961;54.678;9.110;2022-07-06T11:45:26;18.60;99.90
28823;DHT22;15961;54.678;9.110;2022-07-06T11:48:09;18.60;99.90
28823;DHT22;15961;54.678;9.110;2022-07-06T11:50:35;18.80;99.90
28823;DHT22;15961;54.678;9.110;2022-07-06T11:53:00;19.10;99.90
28823;DHT22;15961;54.678;9.110;2022-07-06T11:55:28;19.50;99.90
28823;DHT22;15961;54.678;9.110;2022-07-06T11:57:55;19.20;99.90
28823;DHT22;15961;54.678;9.110;2022-07-06T12:00:22;18.90;99.90
28823;DHT22;15961;54.678;9.110;2022-07-06T12:03:01;18.50;99.90
28823;DHT22;15961;54.678;9.110;2022-07-06T12:05:30;18.30;99.90
28823;DHT22;15961;54.678;9.110;2022-07-06T12:08:06;18.60;99.90
28823;DHT22;15961;54.678;9.110;2022-07-06T12:10:32;19.40;99.90
28823;DHT22;15961;54.678;9.110;2022-07-06T12:13:03;19.60;99.90
28823;DHT22;15961;54.678;9.110;2022-07-06T12:15:29;19.40;99.90
28823;DHT22;15961;54.678;9.110;2022-07-06T12:17:55;18.80;99.90
28823;DHT22;15961;54.678;9.110;2022-07-06T12:20:20;18.40;99.90
28823;DHT22;15961;54.678;9.110;2022-07-06T12:22:46;18.20;99.90
28823;DHT22;15961;54.678;9.110;2022-07-06T12:25:12;18.30;99.90
28823;DHT22;15961;54.678;9.110;2022-07-06T12:27:54;18.50;99.90
28823;DHT22;15961;54.678;9.110;2022-07-06T12:30:19;19.50;99.90
28823;DHT22;15961;54.678;9.110;2022-07-06T12:32:45;20.10;99.90
28823;DHT22;15961;54.678;9.110;2022-07-06T12:35:10;20.60;99.90
28823;DHT22;15961;54.678;9.110;2022-07-06T12:37:37;20.80;99.90
28823;DHT22;15961;54.678;9.110;2022-07-06T12:40:12;20.90;99.90
28823;DHT22;15961;54.678;9.110;2022-07-06T12:42:48;21.10;99.90
28823;DHT22;15961;54.678;9.110;2022-07-06T12:45:14;21.50;99.90
28823;DHT22;15961;54.678;9.110;2022-07-06T12:47:40;22.00;99.90
28823;DHT22;15961;54.678;9.110;2022-07-06T12:50:09;21.30;99.90
28823;DHT22;15961;54.678;9.110;2022-07-06T12:52:36;20.40;99.90
28823;DHT22;15961;54.678;9.110;2022-07-06T12:55:04;19.60;99.90
28823;DHT22;15961;54.678;9.110;2022-07-06T12:57:48;18.90;99.90
28823;DHT22;15961;54.678;9.110;2022-07-06T13:00:15;19.10;99.90
28823;DHT22;15961;54.678;9.110;2022-07-06T13:02:44;19.40;99.90
28823;DHT22;15961;54.678;9.110;2022-07-06T13:05:12;19.20;99.90
28823;DHT22;15961;54.678;9.110;2022-07-06T13:07:43;18.90;99.90
28823;DHT22;15961;54.678;9.110;2022-07-06T13:10:10;19.90;99.90
28823;DHT22;15961;54.678;9.110;2022-07-06T13:12:36;20.50;99.90
28823;DHT22;15961;54.678;9.110;2022-07-06T13:15:03;20.20;99.90
28823;DHT22;15961;54.678;9.110;2022-07-06T13:17:29;19.40;99.90
28823;DHT22;15961;54.678;9.110;2022-07-06T13:19:54;18.80;99.90
28823;DHT22;15961;54.678;9.110;2022-07-06T13:22:20;18.50;99.90
28823;DHT22;15961;54.678;9.110;2022-07-06T13:24:46;18.70;99.90
28823;DHT22;15961;54.678;9.110;2022-07-06T13:27:12;19.00;99.90
28823;DHT22;15961;54.678;9.110;2022-07-06T13:29:38;19.10;99.90
28823;DHT22;15961;54.678;9.110;2022-07-06T13:32:04;19.60;99.90
28823;DHT22;15961;54.678;9.110;2022-07-06T13:34:31;19.40;99.90
28823;DHT22;15961;54.678;9.110;2022-07-06T13:36:57;19.20;99.90
28823;DHT22;15961;54.678;9.110;2022-07-06T13:39:23;18.80;99.90
28823;DHT22;15961;54.678;9.110;2022-07-06T13:41:49;18.40;99.90
28823;DHT22;15961;54.678;9.110;2022-07-06T13:44:15;18.40;99.90
28823;DHT22;15961;54.678;9.110;2022-07-06T13:46:41;18.30;99.90
28823;DHT22;15961;54.678;9.110;2022-07-06T13:49:08;18.20;99.90
28823;DHT22;15961;54.678;9.110;2022-07-06T13:51:34;18.40;99.90
28823;DHT22;15961;54.678;9.110;2022-07-06T13:53:59;19.20;99.90
28823;DHT22;15961;54.678;9.110;2022-07-06T13:56:25;19.50;99.90
28823;DHT22;15961;54.678;9.110;2022-07-06T13:58:51;19.90;99.90
28823;DHT22;15961;54.678;9.110;2022-07-06T14:01:17;19.90;99.90
28823;DHT22;15961;54.678;9.110;2022-07-06T14:03:43;19.50;99.90
28823;DHT22;15961;54.678;9.110;2022-07-06T14:06:09;19.20;99.90
28823;DHT22;15961;54.678;9.110;2022-07-06T14:08:35;19.00;99.90
28823;DHT22;15961;54.678;9.110;2022-07-06T14:11:03;18.80;99.90
28823;DHT22;15961;54.678;9.110;2022-07-06T14:13:28;18.90;99.90
28823;DHT22;15961;54.678;9.110;2022-07-06T14:15:54;19.10;99.90
28823;DHT22;15961;54.678;9.110;2022-07-06T14:18:20;19.00;99.90
28823;DHT22;15961;54.678;9.110;2022-07-06T14:20:47;19.20;99.90
28823;DHT22;15961;54.678;9.110;2022-07-06T14:23:14;19.70;99.90
28823;DHT22;15961;54.678;9.110;2022-07-06T14:25:41;19.90;99.90
28823;DHT22;15961;54.678;9.110;2022-07-06T14:28:07;20.10;99.90
28823;DHT22;15961;54.678;9.110;2022-07-06T14:30:33;20.50;99.90
28823;DHT22;15961;54.678;9.110;2022-07-06T14:33:05;20.40;99.90
28823;DHT22;15961;54.678;9.110;2022-07-06T14:35:39;20.10;99.90
28823;DHT22;15961;54.678;9.110;2022-07-06T14:38:06;19.90;99.90
28823;DHT22;15961;54.678;9.110;2022-07-06T14:40:33;19.80;99.90
28823;DHT22;15961;54.678;9.110;2022-07-06T14:42:59;19.70;99.90
28823;DHT22;15961;54.678;9.110;2022-07-06T14:45:25;19.20;99.90
28823;DHT22;15961;54.678;9.110;2022-07-06T14:47:51;18.70;99.90
28823;DHT22;15961;54.678;9.110;2022-07-06T14:50:17;18.20;99.90
28823;DHT22;15961;54.678;9.110;2022-07-06T14:52:43;17.90;99.90
28823;DHT22;15961;54.678;9.110;2022-07-06T14:55:08;18.00;99.90
28823;DHT22;15961;54.678;9.110;2022-07-06T14:57:34;18.00;99.90
28823;DHT22;15961;54.678;9.110;2022-07-06T14:59:59;17.80;99.90
28823;DHT22;15961;54.678;9.110;2022-07-06T15:02:25;17.80;99.90
28823;DHT22;15961;54.678;9.110;2022-07-06T15:04:50;17.90;99.90
28823;DHT22;15961;54.678;9.110;2022-07-06T15:07:16;18.00;99.90
28823;DHT22;15961;54.678;9.110;2022-07-06T15:09:42;17.90;99.90
28823;DHT22;15961;54.678;9.110;2022-07-06T15:12:08;17.60;99.90
28823;DHT22;15961;54.678;9.110;2022-07-06T15:14:34;17.50;99.90
28823;DHT22;15961;54.678;9.110;2022-07-06T15:17:00;17.50;99.90
28823;DHT22;15961;54.678;9.110;2022-07-06T15:19:26;17.70;99.90
28823;DHT22;15961;54.678;9.110;2022-07-06T15:21:53;18.00;99.90
28823;DHT22;15961;54.678;9.110;2022-07-06T15:24:18;18.20;99.90
28823;DHT22;15961;54.678;9.110;2022-07-06T15:26:44;18.30;99.90
28823;DHT22;15961;54.678;9.110;2022-07-06T15:29:10;18.40;99.90
28823;DHT22;15961;54.678;9.110;2022-07-06T15:31:35;18.50;99.90
28823;DHT22;15961;54.678;9.110;2022-07-06T15:34:01;18.50;99.90
28823;DHT22;15961;54.678;9.110;2022-07-06T15:36:27;18.50;99.90
28823;DHT22;15961;54.678;9.110;2022-07-06T15:38:52;18.50;99.90